createdAt,value
2023-04-16T00:01:34.795Z,8.82
2023-04-16T00:04:03.262Z,8.83
2023-04-16T00:06:30.238Z,8.66
2023-04-16T00:08:56.760Z,8.89
2023-04-16T00:11:23.445Z,8.85
2023-04-16T00:13:49.944Z,8.66
2023-04-16T00:16:16.529Z,8.83
2023-04-16T00:18:43.091Z,8.85
2023-04-16T00:21:11.025Z,8.78
2023-04-16T00:23:37.888Z,8.72
2023-04-16T00:26:04.775Z,8.74
2023-04-16T00:28:31.315Z,8.78
2023-04-16T00:30:58.261Z,8.70
2023-04-16T00:33:24.816Z,8.68
2023-04-16T00:35:51.412Z,8.67
2023-04-16T00:38:19.517Z,8.65
2023-04-16T00:40:47.270Z,8.70
2023-04-16T00:43:21.620Z,8.67
2023-04-16T00:45:48.929Z,8.77
2023-04-16T00:48:15.857Z,8.68
2023-04-16T00:50:42.575Z,8.64
2023-04-16T00:53:09.499Z,8.62
2023-04-16T00:55:39.431Z,8.69
2023-04-16T00:58:06.017Z,8.67
2023-04-16T01:00:32.677Z,8.68
2023-04-16T01:02:59.697Z,8.67
2023-04-16T01:05:26.643Z,8.66
2023-04-16T01:07:53.346Z,8.36
2023-04-16T01:10:20.063Z,8.67
2023-04-16T01:12:47.947Z,8.66
2023-04-16T01:15:14.463Z,8.65
2023-04-16T01:17:41.180Z,8.63
2023-04-16T01:20:08.237Z,8.57
2023-04-16T01:22:36.124Z,8.48
2023-04-16T01:25:02.790Z,8.47
2023-04-16T01:27:29.419Z,8.42
2023-04-16T01:29:55.941Z,8.52
2023-04-16T01:32:31.901Z,8.57
2023-04-16T01:34:58.601Z,8.61
2023-04-16T01:37:25.137Z,8.67
2023-04-16T01:39:53.415Z,8.42
2023-04-16T01:42:19.917Z,8.62
2023-04-16T01:44:47.164Z,8.55
2023-04-16T01:47:13.761Z,8.57
2023-04-16T01:49:40.367Z,8.58
2023-04-16T01:52:07.151Z,8.62
2023-04-16T01:54:33.774Z,8.63
2023-04-16T01:57:01.700Z,8.45
2023-04-16T01:59:28.313Z,8.65
2023-04-16T02:01:55.618Z,8.61
2023-04-16T02:04:22.316Z,8.70
2023-04-16T02:06:48.866Z,8.67
2023-04-16T02:09:15.503Z,8.66
2023-04-16T02:11:42.060Z,8.60
2023-04-16T02:14:10.036Z,8.57
2023-04-16T02:16:36.614Z,8.55
2023-04-16T02:19:19.596Z,8.53
2023-04-16T02:21:46.272Z,8.57
2023-04-16T02:24:12.823Z,8.50
2023-04-16T02:26:40.319Z,8.53
2023-04-16T02:29:14.368Z,8.56
2023-04-16T02:31:44.689Z,8.55
2023-04-16T02:34:12.706Z,8.51
2023-04-16T02:36:40.425Z,8.60
2023-04-16T02:39:07.084Z,8.60
2023-04-16T02:41:33.879Z,8.55
2023-04-16T02:44:00.534Z,8.55
2023-04-16T02:46:28.526Z,8.35
2023-04-16T02:48:55.081Z,8.52
2023-04-16T02:51:21.612Z,8.53
2023-04-16T02:53:48.121Z,8.55
2023-04-16T02:56:14.718Z,8.62
2023-04-16T02:58:41.289Z,8.55
2023-04-16T03:01:07.841Z,8.61
2023-04-16T03:03:35.845Z,8.65
2023-04-16T03:06:02.400Z,8.53
2023-04-16T03:08:28.982Z,8.55
2023-04-16T03:10:55.495Z,8.57
2023-04-16T03:13:22.100Z,8.56
2023-04-16T03:15:49.308Z,8.65
2023-04-16T03:18:16.168Z,8.69
2023-04-16T03:20:44.093Z,8.72
2023-04-16T03:23:11.400Z,8.74
2023-04-16T03:25:38.169Z,8.62
2023-04-16T03:28:04.764Z,8.66
2023-04-16T03:30:32.636Z,8.62
2023-04-16T03:32:59.187Z,8.61
2023-04-16T03:35:25.819Z,8.61
2023-04-16T03:37:53.686Z,8.63
2023-04-16T03:40:20.220Z,8.62
2023-04-16T03:42:46.761Z,8.69
2023-04-16T03:45:13.265Z,8.70
2023-04-16T03:47:40.036Z,8.67
2023-04-16T03:50:08.898Z,8.58
2023-04-16T03:52:36.167Z,8.63
2023-04-16T03:55:05.086Z,8.69
2023-04-16T03:57:31.788Z,8.69
2023-04-16T04:00:05.612Z,8.71
2023-04-16T04:02:40.996Z,8.69
2023-04-16T04:05:13.849Z,8.64
2023-04-16T04:07:41.057Z,8.67
2023-04-16T04:10:10.386Z,8.67
2023-04-16T04:12:40.074Z,8.68
2023-04-16T04:15:07.905Z,8.65
2023-04-16T04:17:34.467Z,8.71
2023-04-16T04:20:02.260Z,8.71
2023-04-16T04:22:30.824Z,8.72
2023-04-16T04:24:57.396Z,8.75
2023-04-16T04:27:27.180Z,8.72
2023-04-16T04:29:53.720Z,8.77
2023-04-16T04:32:21.851Z,8.70
2023-04-16T04:34:49.130Z,8.63
2023-04-16T04:37:15.754Z,8.69
2023-04-16T04:39:43.768Z,8.69
2023-04-16T04:42:12.339Z,8.59
2023-04-16T04:44:40.415Z,8.73
2023-04-16T04:47:07.984Z,8.72
2023-04-16T04:49:34.921Z,8.72
2023-04-16T04:52:03.270Z,8.76
2023-04-16T04:54:32.002Z,8.74
2023-04-16T04:56:58.933Z,8.71
2023-04-16T04:59:25.773Z,8.60
2023-04-16T05:01:53.940Z,8.71
2023-04-16T05:04:20.549Z,8.70
2023-04-16T05:06:47.082Z,8.67
2023-04-16T05:09:13.605Z,8.67
2023-04-16T05:11:42.006Z,8.68
2023-04-16T05:14:08.710Z,8.67
2023-04-16T05:16:36.377Z,8.70
2023-04-16T05:19:04.599Z,8.72
2023-04-16T05:21:31.325Z,8.78
2023-04-16T05:23:59.060Z,8.73
2023-04-16T05:26:25.605Z,8.75
2023-04-16T05:28:52.290Z,8.77
2023-04-16T05:31:18.882Z,8.82
2023-04-16T05:33:45.629Z,8.83
2023-04-16T05:36:13.504Z,8.83
2023-04-16T05:38:39.991Z,8.91
2023-04-16T05:41:06.518Z,8.89
2023-04-16T05:43:33.158Z,8.93
2023-04-16T05:45:59.701Z,8.97
2023-04-16T05:48:26.265Z,8.99
2023-04-16T05:50:52.817Z,8.98
2023-04-16T05:53:20.692Z,8.98
2023-04-16T05:55:47.554Z,8.99
2023-04-16T05:58:14.091Z,8.99
2023-04-16T06:00:40.660Z,9.02
2023-04-16T06:03:07.394Z,9.04
2023-04-16T06:05:34.213Z,9.00
2023-04-16T06:08:00.782Z,8.99
2023-04-16T06:10:28.703Z,8.96
2023-04-16T06:12:55.224Z,9.02
2023-04-16T06:15:21.718Z,9.02
2023-04-16T06:17:49.259Z,8.98
2023-04-16T06:20:16.088Z,9.03
2023-04-16T06:22:42.677Z,9.07
2023-04-16T06:25:10.296Z,9.13
2023-04-16T06:27:38.186Z,8.95
2023-04-16T06:30:06.350Z,9.09
2023-04-16T06:32:32.898Z,9.06
2023-04-16T06:34:59.627Z,9.07
2023-04-16T06:37:26.192Z,9.13
2023-04-16T06:39:52.721Z,9.12
2023-04-16T06:42:20.117Z,9.12
2023-04-16T06:44:48.023Z,9.15
2023-04-16T06:47:14.595Z,9.25
2023-04-16T06:49:41.364Z,9.20
2023-04-16T06:52:07.989Z,9.24
2023-04-16T06:54:34.591Z,9.00
2023-04-16T06:57:01.180Z,9.12
2023-04-16T06:59:27.959Z,8.96
2023-04-16T07:01:56.417Z,9.13
2023-04-16T07:04:23.795Z,9.18
2023-04-16T07:06:50.349Z,9.12
2023-04-16T07:09:16.846Z,9.22
2023-04-16T07:11:44.632Z,9.24
2023-04-16T07:14:11.267Z,9.27
2023-04-16T07:16:38.036Z,9.23
2023-04-16T07:19:06.033Z,9.31
2023-04-16T07:21:32.871Z,9.28
2023-04-16T07:23:59.358Z,9.36
2023-04-16T07:26:25.888Z,9.40
2023-04-16T07:28:52.414Z,9.46
2023-04-16T07:31:19.630Z,9.50
2023-04-16T07:33:46.262Z,9.36
2023-04-16T07:36:14.074Z,9.44
2023-04-16T07:38:40.535Z,9.51
2023-04-16T07:41:07.048Z,9.58
2023-04-16T07:43:33.510Z,9.62
2023-04-16T07:46:00.011Z,9.69
2023-04-16T07:48:26.748Z,9.72
2023-04-16T07:50:53.302Z,9.78
2023-04-16T07:53:21.199Z,9.82
2023-04-16T07:55:47.754Z,9.87
2023-04-16T07:58:14.414Z,9.90
2023-04-16T08:00:40.898Z,9.92
2023-04-16T08:03:07.660Z,9.96
2023-04-16T08:05:34.354Z,9.97
2023-04-16T08:08:00.858Z,10.02
2023-04-16T08:10:28.823Z,10.04
2023-04-16T08:12:55.327Z,9.96
2023-04-16T08:15:21.831Z,10.03
2023-04-16T08:17:48.651Z,9.96
2023-04-16T08:20:17.629Z,10.03
2023-04-16T08:22:45.844Z,10.00
2023-04-16T08:25:12.345Z,9.98
2023-04-16T08:27:40.387Z,10.01
2023-04-16T08:30:08.137Z,10.02
2023-04-16T08:32:34.933Z,9.82
2023-04-16T08:35:01.896Z,10.09
2023-04-16T08:37:28.458Z,10.11
2023-04-16T08:39:55.059Z,10.12
2023-04-16T08:42:28.938Z,10.08
2023-04-16T08:45:06.391Z,10.20
2023-04-16T08:47:35.087Z,10.23
2023-04-16T08:50:03.594Z,10.29
2023-04-16T08:52:31.199Z,10.20
2023-04-16T08:55:03.642Z,10.34
2023-04-16T08:57:37.160Z,10.31
2023-04-16T09:00:07.778Z,10.44
2023-04-16T09:02:35.009Z,10.52
2023-04-16T09:05:05.277Z,10.66
2023-04-16T09:07:33.303Z,10.59
2023-04-16T09:10:00.581Z,10.60
2023-04-16T09:12:27.414Z,10.64
2023-04-16T09:14:54.733Z,10.69
2023-04-16T09:17:22.677Z,10.76
2023-04-16T09:19:49.321Z,10.83
2023-04-16T09:22:16.037Z,10.87
2023-04-16T09:24:42.547Z,10.87
2023-04-16T09:27:09.156Z,11.09
2023-04-16T09:29:36.656Z,11.13
2023-04-16T09:32:04.187Z,11.34
2023-04-16T09:34:33.559Z,11.47
2023-04-16T09:37:15.597Z,11.51
2023-04-16T09:39:42.720Z,11.54
2023-04-16T09:42:09.301Z,11.49
2023-04-16T09:44:36.660Z,11.57
2023-04-16T09:47:06.664Z,11.51
2023-04-16T09:49:40.813Z,11.57
2023-04-16T09:52:12.435Z,11.63
2023-04-16T09:54:39.039Z,11.63
2023-04-16T09:57:05.701Z,11.69
2023-04-16T09:59:32.545Z,11.68
2023-04-16T10:02:14.623Z,11.68
2023-04-16T10:04:49.270Z,11.74
2023-04-16T10:07:16.853Z,11.68
2023-04-16T10:09:43.574Z,11.81
2023-04-16T10:12:10.597Z,11.82
2023-04-16T10:14:37.117Z,11.72
2023-04-16T10:17:04.518Z,11.85
2023-04-16T10:19:31.938Z,11.90
2023-04-16T10:21:59.918Z,11.90
2023-04-16T10:24:26.470Z,11.82
2023-04-16T10:26:53.325Z,11.59
2023-04-16T10:29:20.448Z,11.69
2023-04-16T10:31:48.202Z,11.81
2023-04-16T10:34:15.763Z,11.86
2023-04-16T10:36:43.089Z,11.88
2023-04-16T10:39:14.750Z,11.85
2023-04-16T10:41:43.611Z,11.91
2023-04-16T10:44:10.781Z,11.91
2023-04-16T10:46:38.962Z,11.92
2023-04-16T10:49:13.696Z,11.90
2023-04-16T10:51:40.934Z,11.84
2023-04-16T10:54:23.200Z,11.83
2023-04-16T10:56:50.341Z,11.85
2023-04-16T10:59:18.668Z,11.94
2023-04-16T11:01:46.786Z,11.99
2023-04-16T11:04:36.095Z,12.06
2023-04-16T11:07:05.941Z,12.18
2023-04-16T11:09:53.553Z,12.32
2023-04-16T11:12:21.798Z,12.33
2023-04-16T11:14:50.101Z,12.53
2023-04-16T11:17:17.166Z,12.49
2023-04-16T11:19:43.881Z,12.48
2023-04-16T11:22:13.026Z,12.59
2023-04-16T11:24:39.522Z,12.50
2023-04-16T11:27:07.956Z,12.60
2023-04-16T11:29:34.607Z,12.42
2023-04-16T11:32:01.335Z,12.57
2023-04-16T11:34:27.871Z,12.59
2023-04-16T11:36:54.425Z,12.48
2023-04-16T11:39:20.916Z,12.52
2023-04-16T11:41:49.476Z,12.39
2023-04-16T11:44:22.239Z,12.54
2023-04-16T11:46:49.389Z,12.56
2023-04-16T11:49:16.116Z,12.70
2023-04-16T11:51:43.660Z,12.77
2023-04-16T11:54:17.892Z,12.86
2023-04-16T11:56:46.583Z,12.84
2023-04-16T11:59:14.592Z,12.83
2023-04-16T12:01:46.863Z,13.11
2023-04-16T12:04:14.304Z,12.95
2023-04-16T12:06:41.056Z,13.01
2023-04-16T12:09:23.515Z,13.11
2023-04-16T12:11:50.309Z,13.21
2023-04-16T12:14:16.864Z,13.25
2023-04-16T12:16:44.915Z,13.30
2023-04-16T12:19:12.654Z,13.49
2023-04-16T12:21:41.127Z,13.53
2023-04-16T12:24:09.413Z,13.51
2023-04-16T12:26:37.923Z,13.65
2023-04-16T12:29:18.664Z,13.62
2023-04-16T12:31:46.786Z,13.69
2023-04-16T12:34:13.830Z,13.73
2023-04-16T12:36:40.535Z,13.80
2023-04-16T12:39:07.426Z,13.57
2023-04-16T12:41:36.872Z,13.52
2023-04-16T12:44:05.004Z,13.59
2023-04-16T12:46:31.578Z,13.73
2023-04-16T12:48:59.729Z,13.78
2023-04-16T12:51:26.459Z,13.78
2023-04-16T12:53:53.032Z,13.82
2023-04-16T12:56:19.634Z,14.04
2023-04-16T12:58:46.162Z,14.13
2023-04-16T13:01:12.694Z,14.16
2023-04-16T13:03:39.490Z,14.01
2023-04-16T13:06:08.124Z,14.24
2023-04-16T13:08:34.640Z,14.36
2023-04-16T13:11:01.208Z,14.24
2023-04-16T13:13:27.867Z,14.13
2023-04-16T13:15:54.515Z,14.15
2023-04-16T13:18:21.088Z,14.03
2023-04-16T13:20:47.618Z,14.17
2023-04-16T13:23:15.588Z,14.24
2023-04-16T13:25:42.124Z,14.30
2023-04-16T13:28:08.677Z,14.42
2023-04-16T13:30:35.312Z,14.24
2023-04-16T13:33:02.329Z,14.27
2023-04-16T13:35:29.802Z,14.27
2023-04-16T13:37:56.348Z,14.34
2023-04-16T13:40:24.266Z,14.01
2023-04-16T13:42:52.119Z,14.32
2023-04-16T13:45:19.041Z,14.34
2023-04-16T13:47:45.897Z,14.35
2023-04-16T13:50:12.717Z,14.46
2023-04-16T13:52:39.547Z,14.48
2023-04-16T13:55:06.963Z,14.55
2023-04-16T13:57:36.636Z,14.40
2023-04-16T14:00:03.679Z,14.49
2023-04-16T14:02:31.523Z,14.49
2023-04-16T14:04:58.217Z,14.43
2023-04-16T14:07:24.879Z,14.43
2023-04-16T14:09:51.458Z,14.48
2023-04-16T14:12:18.049Z,14.35
2023-04-16T14:14:45.963Z,14.40
2023-04-16T14:17:12.505Z,14.42
2023-04-16T14:19:39.085Z,14.29
2023-04-16T14:22:06.973Z,14.44
2023-04-16T14:24:35.260Z,14.50
2023-04-16T14:27:01.825Z,14.37
2023-04-16T14:29:28.402Z,14.29
2023-04-16T14:31:56.284Z,14.42
2023-04-16T14:34:23.154Z,14.24
2023-04-16T14:36:50.259Z,14.24
2023-04-16T14:39:16.776Z,14.22
2023-04-16T14:41:43.350Z,14.18
2023-04-16T14:44:10.015Z,14.12
2023-04-16T14:46:36.573Z,14.13
2023-04-16T14:49:04.989Z,14.09
2023-04-16T14:51:31.794Z,14.12
2023-04-16T14:53:58.342Z,14.21
2023-04-16T14:56:24.872Z,14.18
2023-04-16T14:58:51.432Z,14.15
2023-04-16T15:01:18.033Z,14.12
2023-04-16T15:03:44.813Z,14.17
2023-04-16T15:06:13.837Z,14.19
2023-04-16T15:08:40.444Z,14.27
2023-04-16T15:11:07.083Z,14.26
2023-04-16T15:13:33.607Z,14.33
2023-04-16T15:16:00.838Z,14.37
2023-04-16T15:18:27.636Z,14.50
2023-04-16T15:20:54.412Z,14.42
2023-04-16T15:23:22.466Z,14.49
2023-04-16T15:25:48.976Z,14.40
2023-04-16T15:28:15.592Z,14.31
2023-04-16T15:30:42.366Z,14.31
2023-04-16T15:33:09.393Z,14.31
2023-04-16T15:35:36.279Z,14.26
2023-04-16T15:38:02.766Z,14.27
2023-04-16T15:40:31.083Z,14.30
2023-04-16T15:42:57.695Z,14.27
2023-04-16T15:45:24.236Z,14.38
2023-04-16T15:47:50.831Z,14.38
2023-04-16T15:50:17.499Z,14.38
2023-04-16T15:52:44.012Z,14.21
2023-04-16T15:55:10.589Z,14.26
2023-04-16T15:57:38.646Z,14.26
2023-04-16T16:00:07.411Z,14.19
2023-04-16T16:02:34.421Z,14.11
2023-04-16T16:05:01.190Z,14.25
2023-04-16T16:07:27.724Z,14.01
2023-04-16T16:09:54.297Z,14.15
2023-04-16T16:12:20.806Z,14.19
2023-04-16T16:14:48.651Z,14.12
2023-04-16T16:17:15.172Z,14.13
2023-04-16T16:19:41.665Z,13.96
2023-04-16T16:22:08.177Z,13.99
2023-04-16T16:24:34.706Z,13.96
2023-04-16T16:27:01.245Z,13.91
2023-04-16T16:29:27.766Z,13.89
2023-04-16T16:31:55.715Z,13.86
2023-04-16T16:34:22.312Z,13.85
2023-04-16T16:36:48.934Z,13.72
2023-04-16T16:39:15.510Z,13.70
2023-04-16T16:41:42.068Z,13.69
2023-04-16T16:44:08.716Z,13.61
2023-04-16T16:46:35.241Z,13.58
2023-04-16T16:49:03.190Z,13.63
2023-04-16T16:51:29.654Z,13.52
2023-04-16T16:53:56.193Z,13.49
2023-04-16T16:56:22.674Z,13.39
2023-04-16T16:58:49.166Z,13.37
2023-04-16T17:01:15.795Z,13.26
2023-04-16T17:03:42.463Z,13.12
2023-04-16T17:06:10.456Z,13.14
2023-04-16T17:08:37.015Z,13.07
2023-04-16T17:11:03.954Z,12.99
2023-04-16T17:13:30.547Z,12.95
2023-04-16T17:15:57.061Z,12.91
2023-04-16T17:18:23.743Z,12.89
2023-04-16T17:20:50.247Z,12.87
2023-04-16T17:23:18.120Z,12.84
2023-04-16T17:25:44.659Z,12.74
2023-04-16T17:28:11.174Z,12.71
2023-04-16T17:30:37.686Z,12.64
2023-04-16T17:33:04.661Z,12.66
2023-04-16T17:35:31.450Z,12.68
2023-04-16T17:37:57.986Z,12.60
2023-04-16T17:40:25.899Z,12.56
2023-04-16T17:42:52.481Z,12.54
2023-04-16T17:45:19.027Z,12.47
2023-04-16T17:47:45.567Z,12.43
2023-04-16T17:50:12.180Z,11.90
2023-04-16T17:52:38.938Z,12.35
2023-04-16T17:55:06.393Z,12.32
2023-04-16T17:57:34.251Z,12.29
2023-04-16T18:00:00.802Z,12.29
2023-04-16T18:02:27.489Z,12.24
2023-04-16T18:04:54.540Z,12.14
2023-04-16T18:07:21.378Z,12.16
2023-04-16T18:09:47.883Z,12.14
2023-04-16T18:12:14.817Z,12.11
2023-04-16T18:14:42.690Z,12.06
2023-04-16T18:17:09.203Z,12.02
2023-04-16T18:19:35.725Z,11.99
2023-04-16T18:22:02.323Z,11.95
2023-04-16T18:24:28.838Z,11.92
2023-04-16T18:26:55.432Z,11.87
2023-04-16T18:29:24.792Z,11.83
2023-04-16T18:31:54.548Z,11.65
2023-04-16T18:34:22.217Z,11.75
2023-04-16T18:36:48.769Z,11.70
2023-04-16T18:39:15.292Z,11.68
2023-04-16T18:41:41.813Z,11.68
2023-04-16T18:44:08.271Z,11.66
2023-04-16T18:46:34.803Z,11.58
2023-04-16T18:49:02.749Z,11.54
2023-04-16T18:51:29.282Z,11.51
2023-04-16T18:53:55.795Z,11.47
2023-04-16T18:56:22.316Z,11.44
2023-04-16T18:58:48.795Z,11.40
2023-04-16T19:01:15.344Z,11.27
2023-04-16T19:03:42.091Z,11.30
2023-04-16T19:06:10.008Z,11.23
2023-04-16T19:08:36.583Z,11.17
2023-04-16T19:11:03.292Z,11.13
2023-04-16T19:13:30.659Z,11.10
2023-04-16T19:15:57.621Z,11.00
2023-04-16T19:18:24.275Z,11.05
2023-04-16T19:20:50.867Z,11.04
2023-04-16T19:23:18.759Z,11.02
2023-04-16T19:25:45.266Z,11.02
2023-04-16T19:28:11.744Z,11.03
2023-04-16T19:30:38.239Z,11.04
2023-04-16T19:33:04.801Z,10.97
2023-04-16T19:35:31.711Z,11.01
2023-04-16T19:37:58.287Z,10.26
2023-04-16T19:40:26.284Z,10.98
2023-04-16T19:42:52.837Z,10.98
2023-04-16T19:45:19.316Z,11.00
2023-04-16T19:47:45.886Z,11.05
2023-04-16T19:50:12.408Z,10.99
2023-04-16T19:52:39.118Z,10.96
2023-04-16T19:55:06.874Z,10.95
2023-04-16T19:57:34.873Z,10.93
2023-04-16T20:00:01.486Z,10.87
2023-04-16T20:02:30.900Z,10.81
2023-04-16T20:04:57.528Z,10.75
2023-04-16T20:07:24.060Z,10.71
2023-04-16T20:09:50.578Z,10.43
2023-04-16T20:12:17.115Z,10.71
2023-04-16T20:14:45.026Z,10.71
2023-04-16T20:17:11.631Z,10.69
2023-04-16T20:19:38.185Z,10.58
2023-04-16T20:22:04.872Z,10.58
2023-04-16T20:24:31.491Z,10.50
2023-04-16T20:26:58.020Z,10.64
2023-04-16T20:29:24.544Z,10.64
2023-04-16T20:31:52.489Z,10.64
2023-04-16T20:34:19.007Z,10.36
2023-04-16T20:36:45.515Z,10.58
2023-04-16T20:39:12.623Z,10.59
2023-04-16T20:41:39.368Z,10.55
2023-04-16T20:44:05.897Z,10.50
2023-04-16T20:46:32.471Z,10.53
2023-04-16T20:49:00.401Z,10.55
2023-04-16T20:51:26.977Z,10.50
2023-04-16T20:53:53.703Z,10.48
2023-04-16T20:56:20.219Z,10.46
2023-04-16T20:58:46.760Z,10.45
2023-04-16T21:01:13.396Z,10.40
2023-04-16T21:03:40.221Z,10.36
2023-04-16T21:06:08.220Z,10.31
2023-04-16T21:08:35.290Z,10.27
2023-04-16T21:11:01.817Z,10.25
2023-04-16T21:13:28.319Z,10.23
2023-04-16T21:15:54.929Z,10.10
2023-04-16T21:18:21.492Z,10.13
2023-04-16T21:20:48.038Z,10.21
2023-04-16T21:23:15.954Z,10.11
2023-04-16T21:25:42.459Z,10.20
2023-04-16T21:28:08.976Z,10.20
2023-04-16T21:30:35.558Z,10.24
2023-04-16T21:33:02.113Z,10.13
2023-04-16T21:35:31.238Z,10.23
2023-04-16T21:37:57.806Z,10.13
2023-04-16T21:40:25.689Z,10.16
2023-04-16T21:42:52.218Z,10.12
2023-04-16T21:45:18.873Z,10.11
2023-04-16T21:47:45.403Z,9.99
2023-04-16T21:50:12.661Z,10.07
2023-04-16T21:52:39.155Z,10.12
2023-04-16T21:55:07.628Z,10.11
2023-04-16T21:57:35.493Z,10.09
2023-04-16T22:00:02.346Z,10.08
2023-04-16T22:02:30.946Z,10.10
2023-04-16T22:04:57.614Z,9.93
2023-04-16T22:07:24.223Z,10.10
2023-04-16T22:09:50.736Z,10.10
2023-04-16T22:12:17.240Z,10.13
2023-04-16T22:14:55.858Z,10.11
2023-04-16T22:17:28.838Z,10.12
2023-04-16T22:19:55.376Z,10.10
2023-04-16T22:22:21.991Z,10.09
2023-04-16T22:24:48.626Z,10.04
2023-04-16T22:27:15.221Z,10.03
2023-04-16T22:29:41.781Z,10.02
2023-04-16T22:32:09.836Z,9.98
2023-04-16T22:34:36.406Z,10.02
2023-04-16T22:37:03.012Z,9.91
2023-04-16T22:39:29.601Z,10.00
2023-04-16T22:41:56.182Z,10.07
2023-04-16T22:44:22.729Z,10.08
2023-04-16T22:46:49.568Z,10.10
2023-04-16T22:49:17.610Z,10.09
2023-04-16T22:51:44.399Z,10.10
2023-04-16T22:54:12.053Z,10.05
2023-04-16T22:56:40.747Z,9.98
2023-04-16T22:59:07.654Z,9.93
2023-04-16T23:01:34.481Z,10.04
2023-04-16T23:04:01.033Z,10.06
2023-04-16T23:06:28.947Z,10.12
2023-04-16T23:08:55.478Z,10.11
2023-04-16T23:11:22.460Z,10.10
2023-04-16T23:13:48.959Z,10.06
2023-04-16T23:16:15.571Z,10.11
2023-04-16T23:18:42.140Z,10.13
2023-04-16T23:21:08.733Z,10.15
2023-04-16T23:23:36.660Z,10.14
2023-04-16T23:26:03.680Z,10.13
2023-04-16T23:28:30.179Z,10.12
2023-04-16T23:30:56.826Z,10.04
2023-04-16T23:33:23.442Z,10.08
2023-04-16T23:35:49.982Z,9.97
2023-04-16T23:38:16.500Z,9.96
2023-04-16T23:40:44.520Z,10.06
2023-04-16T23:43:11.011Z,10.14
2023-04-16T23:45:37.715Z,10.12
2023-04-16T23:48:04.483Z,10.11
2023-04-16T23:50:31.133Z,10.09
2023-04-16T23:52:57.708Z,10.07
2023-04-16T23:55:24.708Z,10.07
2023-04-16T23:57:52.582Z,10.06
